sensor_id;sensor_type;location;lat;lon;timestamp;temperature;humidity
14378;DHT22;7272;53.668;9.578;2023-03-23T00:01:12;11.50;99.90
14378;DHT22;7272;53.668;9.578;2023-03-23T00:04:14;11.50;99.90
14378;DHT22;7272;53.668;9.578;2023-03-23T00:07:18;11.50;99.90
14378;DHT22;7272;53.668;9.578;2023-03-23T00:10:22;11.50;99.90
14378;DHT22;7272;53.668;9.578;2023-03-23T00:13:25;11.40;99.90
14378;DHT22;7272;53.668;9.578;2023-03-23T00:16:30;11.40;99.90
14378;DHT22;7272;53.668;9.578;2023-03-23T00:19:32;11.50;99.90
14378;DHT22;7272;53.668;9.578;2023-03-23T00:22:36;11.40;99.90
14378;DHT22;7272;53.668;9.578;2023-03-23T00:25:38;11.50;99.90
14378;DHT22;7272;53.668;9.578;2023-03-23T00:28:40;11.50;99.90
14378;DHT22;7272;53.668;9.578;2023-03-23T00:31:43;11.60;99.90
14378;DHT22;7272;53.668;9.578;2023-03-23T00:34:47;11.60;99.90
14378;DHT22;7272;53.668;9.578;2023-03-23T00:37:51;11.60;99.90
14378;DHT22;7272;53.668;9.578;2023-03-23T00:40:54;11.60;99.90
14378;DHT22;7272;53.668;9.578;2023-03-23T00:43:58;11.60;99.90
14378;DHT22;7272;53.668;9.578;2023-03-23T00:47:02;11.60;99.90
14378;DHT22;7272;53.668;9.578;2023-03-23T00:50:06;11.60;99.90
14378;DHT22;7272;53.668;9.578;2023-03-23T00:53:10;11.60;99.90
14378;DHT22;7272;53.668;9.578;2023-03-23T00:56:13;11.60;99.90
14378;DHT22;7272;53.668;9.578;2023-03-23T00:59:15;11.60;99.90
14378;DHT22;7272;53.668;9.578;2023-03-23T01:02:18;11.60;99.90
14378;DHT22;7272;53.668;9.578;2023-03-23T01:05:25;11.60;99.90
14378;DHT22;7272;53.668;9.578;2023-03-23T01:08:34;11.70;99.90
14378;DHT22;7272;53.668;9.578;2023-03-23T01:11:40;11.70;99.90
14378;DHT22;7272;53.668;9.578;2023-03-23T01:14:42;11.80;99.90
14378;DHT22;7272;53.668;9.578;2023-03-23T01:17:44;11.70;99.90
14378;DHT22;7272;53.668;9.578;2023-03-23T01:20:47;11.70;99.90
14378;DHT22;7272;53.668;9.578;2023-03-23T01:23:50;11.70;99.90
14378;DHT22;7272;53.668;9.578;2023-03-23T01:26:52;11.70;99.90
14378;DHT22;7272;53.668;9.578;2023-03-23T01:29:54;11.70;99.90
14378;DHT22;7272;53.668;9.578;2023-03-23T01:32:56;11.70;99.90
14378;DHT22;7272;53.668;9.578;2023-03-23T01:36:02;11.70;99.90
14378;DHT22;7272;53.668;9.578;2023-03-23T01:39:06;11.60;99.90
14378;DHT22;7272;53.668;9.578;2023-03-23T01:42:09;11.60;99.90
14378;DHT22;7272;53.668;9.578;2023-03-23T01:45:31;11.60;99.90
14378;DHT22;7272;53.668;9.578;2023-03-23T01:48:36;11.70;99.90
14378;DHT22;7272;53.668;9.578;2023-03-23T01:51:42;11.60;99.90
14378;DHT22;7272;53.668;9.578;2023-03-23T01:54:46;11.70;99.90
14378;DHT22;7272;53.668;9.578;2023-03-23T01:57:50;11.70;99.90
14378;DHT22;7272;53.668;9.578;2023-03-23T02:00:54;11.80;99.90
14378;DHT22;7272;53.668;9.578;2023-03-23T02:03:57;11.80;99.90
14378;DHT22;7272;53.668;9.578;2023-03-23T02:07:00;11.80;99.90
14378;DHT22;7272;53.668;9.578;2023-03-23T02:10:05;11.80;99.90
14378;DHT22;7272;53.668;9.578;2023-03-23T02:13:09;11.80;99.90
14378;DHT22;7272;53.668;9.578;2023-03-23T02:16:18;11.70;99.90
14378;DHT22;7272;53.668;9.578;2023-03-23T02:19:41;11.70;99.90
14378;DHT22;7272;53.668;9.578;2023-03-23T02:23:00;11.70;99.90
14378;DHT22;7272;53.668;9.578;2023-03-23T02:26:26;11.70;99.90
14378;DHT22;7272;53.668;9.578;2023-03-23T02:30:07;11.70;99.90
14378;DHT22;7272;53.668;9.578;2023-03-23T02:36:47;11.70;99.90
14378;DHT22;7272;53.668;9.578;2023-03-23T02:39:55;11.70;99.90
14378;DHT22;7272;53.668;9.578;2023-03-23T02:43:00;11.80;99.90
14378;DHT22;7272;53.668;9.578;2023-03-23T02:46:06;11.80;99.90
14378;DHT22;7272;53.668;9.578;2023-03-23T02:49:12;11.80;99.90
14378;DHT22;7272;53.668;9.578;2023-03-23T02:52:18;11.80;99.90
14378;DHT22;7272;53.668;9.578;2023-03-23T02:55:22;11.80;99.90
14378;DHT22;7272;53.668;9.578;2023-03-23T02:58:25;11.80;99.90
14378;DHT22;7272;53.668;9.578;2023-03-23T03:01:51;11.80;99.90
14378;DHT22;7272;53.668;9.578;2023-03-23T03:05:01;11.80;99.90
14378;DHT22;7272;53.668;9.578;2023-03-23T03:08:12;11.80;99.90
14378;DHT22;7272;53.668;9.578;2023-03-23T03:11:19;11.80;99.90
14378;DHT22;7272;53.668;9.578;2023-03-23T03:14:26;11.80;99.90
14378;DHT22;7272;53.668;9.578;2023-03-23T03:17:31;11.80;99.90
14378;DHT22;7272;53.668;9.578;2023-03-23T03:20:41;11.80;99.90
14378;DHT22;7272;53.668;9.578;2023-03-23T03:23:47;11.80;99.90
14378;DHT22;7272;53.668;9.578;2023-03-23T03:26:53;11.90;99.90
14378;DHT22;7272;53.668;9.578;2023-03-23T03:30:12;11.90;99.90
14378;DHT22;7272;53.668;9.578;2023-03-23T03:33:17;11.80;99.90
14378;DHT22;7272;53.668;9.578;2023-03-23T03:36:24;11.90;99.90
14378;DHT22;7272;53.668;9.578;2023-03-23T03:39:27;11.80;99.90
14378;DHT22;7272;53.668;9.578;2023-03-23T03:42:29;11.80;99.90
14378;DHT22;7272;53.668;9.578;2023-03-23T03:45:31;11.80;99.90
14378;DHT22;7272;53.668;9.578;2023-03-23T03:48:34;11.90;99.90
14378;DHT22;7272;53.668;9.578;2023-03-23T03:51:38;11.90;99.90
14378;DHT22;7272;53.668;9.578;2023-03-23T03:54:41;11.90;99.90
14378;DHT22;7272;53.668;9.578;2023-03-23T03:57:43;11.90;99.90
14378;DHT22;7272;53.668;9.578;2023-03-23T04:01:04;11.90;99.90
14378;DHT22;7272;53.668;9.578;2023-03-23T04:04:10;11.90;99.90
14378;DHT22;7272;53.668;9.578;2023-03-23T04:07:14;11.90;99.90
14378;DHT22;7272;53.668;9.578;2023-03-23T04:10:19;12.00;99.90
14378;DHT22;7272;53.668;9.578;2023-03-23T04:13:27;12.00;99.90
14378;DHT22;7272;53.668;9.578;2023-03-23T04:16:37;12.10;99.90
14378;DHT22;7272;53.668;9.578;2023-03-23T04:19:39;12.00;99.90
14378;DHT22;7272;53.668;9.578;2023-03-23T04:22:43;12.00;99.90
14378;DHT22;7272;53.668;9.578;2023-03-23T04:25:45;12.00;99.90
14378;DHT22;7272;53.668;9.578;2023-03-23T04:28:47;12.00;99.90
14378;DHT22;7272;53.668;9.578;2023-03-23T04:32:22;12.00;99.90
14378;DHT22;7272;53.668;9.578;2023-03-23T04:35:29;12.00;99.90
14378;DHT22;7272;53.668;9.578;2023-03-23T04:38:47;12.00;99.90
14378;DHT22;7272;53.668;9.578;2023-03-23T04:41:55;12.00;99.90
14378;DHT22;7272;53.668;9.578;2023-03-23T04:45:21;12.00;99.90
14378;DHT22;7272;53.668;9.578;2023-03-23T04:48:27;12.00;99.90
14378;DHT22;7272;53.668;9.578;2023-03-23T04:51:41;11.90;99.90
14378;DHT22;7272;53.668;9.578;2023-03-23T04:55:16;12.00;99.90
14378;DHT22;7272;53.668;9.578;2023-03-23T04:58:24;12.00;99.90
14378;DHT22;7272;53.668;9.578;2023-03-23T05:01:52;11.90;99.90
14378;DHT22;7272;53.668;9.578;2023-03-23T05:04:55;11.90;99.90
14378;DHT22;7272;53.668;9.578;2023-03-23T05:07:59;11.90;99.90
14378;DHT22;7272;53.668;9.578;2023-03-23T05:11:06;11.80;99.90
14378;DHT22;7272;53.668;9.578;2023-03-23T05:14:12;11.80;99.90
14378;DHT22;7272;53.668;9.578;2023-03-23T05:17:16;11.80;99.90
14378;DHT22;7272;53.668;9.578;2023-03-23T05:20:19;11.80;99.90
14378;DHT22;7272;53.668;9.578;2023-03-23T05:23:24;11.80;99.90
14378;DHT22;7272;53.668;9.578;2023-03-23T05:26:35;11.80;99.90
14378;DHT22;7272;53.668;9.578;2023-03-23T05:29:49;11.70;99.90
14378;DHT22;7272;53.668;9.578;2023-03-23T05:32:52;11.70;99.90
14378;DHT22;7272;53.668;9.578;2023-03-23T05:36:18;11.70;99.90
14378;DHT22;7272;53.668;9.578;2023-03-23T05:39:39;11.80;99.90
14378;DHT22;7272;53.668;9.578;2023-03-23T05:43:15;11.70;99.90
14378;DHT22;7272;53.668;9.578;2023-03-23T05:46:27;11.70;99.90
14378;DHT22;7272;53.668;9.578;2023-03-23T05:49:33;11.70;99.90
14378;DHT22;7272;53.668;9.578;2023-03-23T05:52:38;11.70;99.90
14378;DHT22;7272;53.668;9.578;2023-03-23T05:55:44;11.70;99.90
14378;DHT22;7272;53.668;9.578;2023-03-23T05:59:12;11.60;99.90
14378;DHT22;7272;53.668;9.578;2023-03-23T06:02:17;11.60;99.90
14378;DHT22;7272;53.668;9.578;2023-03-23T06:05:20;11.60;99.90
14378;DHT22;7272;53.668;9.578;2023-03-23T06:08:27;11.60;99.90
14378;DHT22;7272;53.668;9.578;2023-03-23T06:11:31;11.60;99.90
14378;DHT22;7272;53.668;9.578;2023-03-23T06:14:51;11.60;99.90
14378;DHT22;7272;53.668;9.578;2023-03-23T06:18:00;11.60;99.90
14378;DHT22;7272;53.668;9.578;2023-03-23T06:21:10;11.60;99.90
14378;DHT22;7272;53.668;9.578;2023-03-23T06:24:42;11.70;99.90
14378;DHT22;7272;53.668;9.578;2023-03-23T06:27:45;11.90;99.90
14378;DHT22;7272;53.668;9.578;2023-03-23T06:30:49;12.10;99.90
14378;DHT22;7272;53.668;9.578;2023-03-23T06:33:51;12.10;99.90
14378;DHT22;7272;53.668;9.578;2023-03-23T06:36:59;12.10;99.90
14378;DHT22;7272;53.668;9.578;2023-03-23T06:40:20;12.20;99.90
14378;DHT22;7272;53.668;9.578;2023-03-23T06:43:29;12.20;99.90
14378;DHT22;7272;53.668;9.578;2023-03-23T06:46:49;12.20;99.90
14378;DHT22;7272;53.668;9.578;2023-03-23T06:50:01;12.30;99.90
14378;DHT22;7272;53.668;9.578;2023-03-23T06:53:03;12.30;99.90
14378;DHT22;7272;53.668;9.578;2023-03-23T06:56:06;12.30;99.90
14378;DHT22;7272;53.668;9.578;2023-03-23T06:59:09;12.40;99.90
14378;DHT22;7272;53.668;9.578;2023-03-23T07:02:14;12.50;99.90
14378;DHT22;7272;53.668;9.578;2023-03-23T07:05:19;12.50;99.90
14378;DHT22;7272;53.668;9.578;2023-03-23T07:08:24;12.50;99.90
14378;DHT22;7272;53.668;9.578;2023-03-23T07:11:26;12.60;99.90
14378;DHT22;7272;53.668;9.578;2023-03-23T07:14:31;12.60;99.90
14378;DHT22;7272;53.668;9.578;2023-03-23T07:17:34;12.70;99.90
14378;DHT22;7272;53.668;9.578;2023-03-23T07:20:47;12.70;99.90
14378;DHT22;7272;53.668;9.578;2023-03-23T07:23:50;12.60;99.90
14378;DHT22;7272;53.668;9.578;2023-03-23T07:27:04;12.60;99.90
14378;DHT22;7272;53.668;9.578;2023-03-23T07:30:08;12.60;99.90
14378;DHT22;7272;53.668;9.578;2023-03-23T07:33:11;12.70;99.90
14378;DHT22;7272;53.668;9.578;2023-03-23T07:36:13;12.70;99.90
14378;DHT22;7272;53.668;9.578;2023-03-23T07:39:15;12.80;99.90
14378;DHT22;7272;53.668;9.578;2023-03-23T07:42:18;12.70;99.90
14378;DHT22;7272;53.668;9.578;2023-03-23T07:45:30;12.70;99.90
14378;DHT22;7272;53.668;9.578;2023-03-23T07:48:34;12.70;99.90
14378;DHT22;7272;53.668;9.578;2023-03-23T07:51:37;12.70;99.90
14378;DHT22;7272;53.668;9.578;2023-03-23T07:54:40;12.70;99.90
14378;DHT22;7272;53.668;9.578;2023-03-23T07:57:53;12.80;99.90
14378;DHT22;7272;53.668;9.578;2023-03-23T08:00:55;12.80;99.90
14378;DHT22;7272;53.668;9.578;2023-03-23T08:04:00;12.80;99.90
14378;DHT22;7272;53.668;9.578;2023-03-23T08:07:11;12.80;99.90
14378;DHT22;7272;53.668;9.578;2023-03-23T08:10:22;12.90;99.90
14378;DHT22;7272;53.668;9.578;2023-03-23T08:13:43;12.90;99.90
14378;DHT22;7272;53.668;9.578;2023-03-23T08:17:03;12.90;99.90
14378;DHT22;7272;53.668;9.578;2023-03-23T08:20:23;12.80;99.90
14378;DHT22;7272;53.668;9.578;2023-03-23T08:23:28;12.80;99.90
14378;DHT22;7272;53.668;9.578;2023-03-23T08:26:47;12.70;99.90
14378;DHT22;7272;53.668;9.578;2023-03-23T08:30:11;12.80;99.90
14378;DHT22;7272;53.668;9.578;2023-03-23T08:33:40;12.80;99.90
14378;DHT22;7272;53.668;9.578;2023-03-23T08:36:57;12.80;99.90
14378;DHT22;7272;53.668;9.578;2023-03-23T08:40:21;12.80;99.90
14378;DHT22;7272;53.668;9.578;2023-03-23T08:43:37;12.90;99.90
14378;DHT22;7272;53.668;9.578;2023-03-23T08:46:52;13.10;99.90
14378;DHT22;7272;53.668;9.578;2023-03-23T08:50:20;13.20;99.90
14378;DHT22;7272;53.668;9.578;2023-03-23T08:53:36;13.30;99.90
14378;DHT22;7272;53.668;9.578;2023-03-23T08:56:59;13.40;99.90
14378;DHT22;7272;53.668;9.578;2023-03-23T09:00:14;13.50;99.90
14378;DHT22;7272;53.668;9.578;2023-03-23T09:03:44;13.70;99.90
14378;DHT22;7272;53.668;9.578;2023-03-23T09:06:58;13.90;99.90
14378;DHT22;7272;53.668;9.578;2023-03-23T09:10:03;14.00;99.90
14378;DHT22;7272;53.668;9.578;2023-03-23T09:13:05;14.20;99.90
14378;DHT22;7272;53.668;9.578;2023-03-23T09:16:08;14.20;99.90
14378;DHT22;7272;53.668;9.578;2023-03-23T09:19:11;14.20;99.90
14378;DHT22;7272;53.668;9.578;2023-03-23T09:22:13;14.20;99.90
14378;DHT22;7272;53.668;9.578;2023-03-23T09:25:18;14.30;99.90
14378;DHT22;7272;53.668;9.578;2023-03-23T09:28:22;14.40;99.90
14378;DHT22;7272;53.668;9.578;2023-03-23T09:31:24;14.60;99.90
14378;DHT22;7272;53.668;9.578;2023-03-23T09:34:27;14.70;99.90
14378;DHT22;7272;53.668;9.578;2023-03-23T09:37:30;14.70;99.90
14378;DHT22;7272;53.668;9.578;2023-03-23T09:40:40;14.70;99.90
14378;DHT22;7272;53.668;9.578;2023-03-23T09:43:58;14.70;99.90
14378;DHT22;7272;53.668;9.578;2023-03-23T09:47:08;14.70;99.90
14378;DHT22;7272;53.668;9.578;2023-03-23T09:50:15;14.80;99.90
14378;DHT22;7272;53.668;9.578;2023-03-23T09:53:22;14.80;99.90
14378;DHT22;7272;53.668;9.578;2023-03-23T09:56:29;14.80;99.90
14378;DHT22;7272;53.668;9.578;2023-03-23T09:59:36;14.90;99.90
14378;DHT22;7272;53.668;9.578;2023-03-23T10:02:43;14.80;99.90
14378;DHT22;7272;53.668;9.578;2023-03-23T10:05:50;14.70;99.90
14378;DHT22;7272;53.668;9.578;2023-03-23T10:08:56;14.60;99.90
14378;DHT22;7272;53.668;9.578;2023-03-23T10:12:07;14.60;99.90
14378;DHT22;7272;53.668;9.578;2023-03-23T10:15:14;14.50;99.90
14378;DHT22;7272;53.668;9.578;2023-03-23T10:18:19;14.50;99.90
14378;DHT22;7272;53.668;9.578;2023-03-23T10:21:23;14.60;99.90
14378;DHT22;7272;53.668;9.578;2023-03-23T10:24:33;14.60;99.90
14378;DHT22;7272;53.668;9.578;2023-03-23T10:27:41;14.60;99.90
14378;DHT22;7272;53.668;9.578;2023-03-23T10:30:48;14.50;99.90
14378;DHT22;7272;53.668;9.578;2023-03-23T10:33:53;14.70;99.90
14378;DHT22;7272;53.668;9.578;2023-03-23T10:37:01;15.00;99.90
14378;DHT22;7272;53.668;9.578;2023-03-23T10:40:06;15.00;99.90
14378;DHT22;7272;53.668;9.578;2023-03-23T10:43:16;14.80;99.90
14378;DHT22;7272;53.668;9.578;2023-03-23T10:46:27;14.70;99.90
14378;DHT22;7272;53.668;9.578;2023-03-23T10:49:34;14.70;99.90
14378;DHT22;7272;53.668;9.578;2023-03-23T10:52:41;14.70;99.90
14378;DHT22;7272;53.668;9.578;2023-03-23T10:55:43;14.70;99.90
14378;DHT22;7272;53.668;9.578;2023-03-23T10:58:49;14.70;99.90
14378;DHT22;7272;53.668;9.578;2023-03-23T11:01:54;14.70;99.90
14378;DHT22;7272;53.668;9.578;2023-03-23T11:05:00;14.70;99.90
14378;DHT22;7272;53.668;9.578;2023-03-23T11:08:11;14.70;99.90
14378;DHT22;7272;53.668;9.578;2023-03-23T11:11:16;14.70;99.90
14378;DHT22;7272;53.668;9.578;2023-03-23T11:14:25;14.70;99.90
14378;DHT22;7272;53.668;9.578;2023-03-23T11:17:28;14.70;99.90
14378;DHT22;7272;53.668;9.578;2023-03-23T11:20:43;14.80;99.90
14378;DHT22;7272;53.668;9.578;2023-03-23T11:23:49;14.90;99.90
14378;DHT22;7272;53.668;9.578;2023-03-23T11:26:52;14.90;99.90
14378;DHT22;7272;53.668;9.578;2023-03-23T11:29:58;15.00;99.90
14378;DHT22;7272;53.668;9.578;2023-03-23T11:33:02;15.10;99.90
14378;DHT22;7272;53.668;9.578;2023-03-23T11:36:08;15.20;99.90
14378;DHT22;7272;53.668;9.578;2023-03-23T11:39:22;15.20;99.90
14378;DHT22;7272;53.668;9.578;2023-03-23T11:42:26;15.20;99.90
14378;DHT22;7272;53.668;9.578;2023-03-23T11:45:37;15.20;99.90
14378;DHT22;7272;53.668;9.578;2023-03-23T11:48:45;15.40;99.90
14378;DHT22;7272;53.668;9.578;2023-03-23T11:51:51;15.60;99.90
14378;DHT22;7272;53.668;9.578;2023-03-23T11:54:58;15.70;99.90
14378;DHT22;7272;53.668;9.578;2023-03-23T11:58:10;15.70;99.90
14378;DHT22;7272;53.668;9.578;2023-03-23T12:01:23;15.50;99.90
14378;DHT22;7272;53.668;9.578;2023-03-23T12:04:37;15.30;99.90
14378;DHT22;7272;53.668;9.578;2023-03-23T12:07:50;15.10;99.90
14378;DHT22;7272;53.668;9.578;2023-03-23T12:11:01;15.20;99.90
14378;DHT22;7272;53.668;9.578;2023-03-23T12:14:16;15.30;99.90
14378;DHT22;7272;53.668;9.578;2023-03-23T12:17:28;15.20;99.90
14378;DHT22;7272;53.668;9.578;2023-03-23T12:20:39;15.20;99.90
14378;DHT22;7272;53.668;9.578;2023-03-23T12:23:51;15.30;99.90
14378;DHT22;7272;53.668;9.578;2023-03-23T12:27:02;15.40;99.90
14378;DHT22;7272;53.668;9.578;2023-03-23T12:30:20;15.70;99.90
14378;DHT22;7272;53.668;9.578;2023-03-23T12:33:33;16.00;99.90
14378;DHT22;7272;53.668;9.578;2023-03-23T12:36:48;16.50;99.90
14378;DHT22;7272;53.668;9.578;2023-03-23T12:40:15;16.70;99.90
14378;DHT22;7272;53.668;9.578;2023-03-23T12:43:28;16.60;99.90
14378;DHT22;7272;53.668;9.578;2023-03-23T12:50:00;16.40;99.90
14378;DHT22;7272;53.668;9.578;2023-03-23T12:53:08;16.30;99.90
14378;DHT22;7272;53.668;9.578;2023-03-23T12:56:16;16.30;99.90
14378;DHT22;7272;53.668;9.578;2023-03-23T12:59:25;16.40;99.90
14378;DHT22;7272;53.668;9.578;2023-03-23T13:02:30;16.40;99.90
14378;DHT22;7272;53.668;9.578;2023-03-23T13:05:41;16.10;99.90
14378;DHT22;7272;53.668;9.578;2023-03-23T13:08:49;15.80;99.90
14378;DHT22;7272;53.668;9.578;2023-03-23T13:11:54;15.50;99.90
14378;DHT22;7272;53.668;9.578;2023-03-23T13:15:05;15.10;99.90
14378;DHT22;7272;53.668;9.578;2023-03-23T13:18:18;14.70;99.90
14378;DHT22;7272;53.668;9.578;2023-03-23T13:21:27;14.30;99.90
14378;DHT22;7272;53.668;9.578;2023-03-23T13:24:31;14.10;99.90
14378;DHT22;7272;53.668;9.578;2023-03-23T13:27:35;14.00;99.90
14378;DHT22;7272;53.668;9.578;2023-03-23T13:30:37;14.00;99.90
14378;DHT22;7272;53.668;9.578;2023-03-23T13:33:44;13.90;99.90
14378;DHT22;7272;53.668;9.578;2023-03-23T13:36:54;13.90;99.90
14378;DHT22;7272;53.668;9.578;2023-03-23T13:40:11;13.80;99.90
14378;DHT22;7272;53.668;9.578;2023-03-23T13:43:25;13.70;99.90
14378;DHT22;7272;53.668;9.578;2023-03-23T13:46:29;13.60;99.90
14378;DHT22;7272;53.668;9.578;2023-03-23T13:49:32;13.50;99.90
14378;DHT22;7272;53.668;9.578;2023-03-23T13:52:46;13.50;99.90
14378;DHT22;7272;53.668;9.578;2023-03-23T13:55:52;13.50;99.90
14378;DHT22;7272;53.668;9.578;2023-03-23T13:59:07;13.60;99.90
14378;DHT22;7272;53.668;9.578;2023-03-23T14:02:30;13.60;99.90
14378;DHT22;7272;53.668;9.578;2023-03-23T14:05:35;13.50;99.90
14378;DHT22;7272;53.668;9.578;2023-03-23T14:08:41;13.40;99.90
14378;DHT22;7272;53.668;9.578;2023-03-23T14:11:49;13.50;99.90
14378;DHT22;7272;53.668;9.578;2023-03-23T14:15:02;14.00;99.90
14378;DHT22;7272;53.668;9.578;2023-03-23T14:18:11;14.60;99.90
14378;DHT22;7272;53.668;9.578;2023-03-23T14:21:15;14.80;99.90
14378;DHT22;7272;53.668;9.578;2023-03-23T14:24:21;14.90;99.90
14378;DHT22;7272;53.668;9.578;2023-03-23T14:27:26;15.00;99.90
14378;DHT22;7272;53.668;9.578;2023-03-23T14:30:35;15.10;99.90
14378;DHT22;7272;53.668;9.578;2023-03-23T14:33:38;15.10;99.90
14378;DHT22;7272;53.668;9.578;2023-03-23T14:36:42;15.20;99.90
14378;DHT22;7272;53.668;9.578;2023-03-23T14:39:47;15.20;99.90
14378;DHT22;7272;53.668;9.578;2023-03-23T14:42:50;15.30;99.90
14378;DHT22;7272;53.668;9.578;2023-03-23T14:45:58;15.40;99.90
14378;DHT22;7272;53.668;9.578;2023-03-23T14:49:01;15.40;99.90
14378;DHT22;7272;53.668;9.578;2023-03-23T14:52:09;15.40;99.90
14378;DHT22;7272;53.668;9.578;2023-03-23T14:55:14;15.30;99.90
14378;DHT22;7272;53.668;9.578;2023-03-23T14:58:20;15.10;99.90
14378;DHT22;7272;53.668;9.578;2023-03-23T15:01:25;14.90;99.90
14378;DHT22;7272;53.668;9.578;2023-03-23T15:04:29;14.80;99.90
14378;DHT22;7272;53.668;9.578;2023-03-23T15:07:34;14.70;99.90
14378;DHT22;7272;53.668;9.578;2023-03-23T15:10:38;14.70;99.90
14378;DHT22;7272;53.668;9.578;2023-03-23T15:13:44;14.70;99.90
14378;DHT22;7272;53.668;9.578;2023-03-23T15:16:47;15.00;99.90
14378;DHT22;7272;53.668;9.578;2023-03-23T15:19:51;15.40;99.90
14378;DHT22;7272;53.668;9.578;2023-03-23T15:22:54;15.70;99.90
14378;DHT22;7272;53.668;9.578;2023-03-23T15:25:57;15.90;99.90
14378;DHT22;7272;53.668;9.578;2023-03-23T15:29:20;15.90;99.90
14378;DHT22;7272;53.668;9.578;2023-03-23T15:32:26;15.80;99.90
14378;DHT22;7272;53.668;9.578;2023-03-23T15:35:34;15.60;99.90
14378;DHT22;7272;53.668;9.578;2023-03-23T15:38:36;15.30;99.90
14378;DHT22;7272;53.668;9.578;2023-03-23T15:41:48;15.20;99.90
14378;DHT22;7272;53.668;9.578;2023-03-23T15:44:56;15.00;99.90
14378;DHT22;7272;53.668;9.578;2023-03-23T15:48:10;15.00;99.90
14378;DHT22;7272;53.668;9.578;2023-03-23T15:51:13;14.90;99.90
14378;DHT22;7272;53.668;9.578;2023-03-23T15:54:16;14.70;99.90
14378;DHT22;7272;53.668;9.578;2023-03-23T15:57:19;14.50;99.90
14378;DHT22;7272;53.668;9.578;2023-03-23T16:00:22;14.30;99.90
14378;DHT22;7272;53.668;9.578;2023-03-23T16:03:26;14.20;99.90
14378;DHT22;7272;53.668;9.578;2023-03-23T16:06:31;14.10;99.90
14378;DHT22;7272;53.668;9.578;2023-03-23T16:09:33;14.10;99.90
14378;DHT22;7272;53.668;9.578;2023-03-23T16:12:36;14.10;99.90
14378;DHT22;7272;53.668;9.578;2023-03-23T16:15:38;14.10;99.90
14378;DHT22;7272;53.668;9.578;2023-03-23T16:18:40;14.10;99.90
14378;DHT22;7272;53.668;9.578;2023-03-23T16:21:42;14.00;99.90
14378;DHT22;7272;53.668;9.578;2023-03-23T16:24:44;14.00;99.90
14378;DHT22;7272;53.668;9.578;2023-03-23T16:27:48;14.00;99.90
14378;DHT22;7272;53.668;9.578;2023-03-23T16:30:50;14.00;99.90
14378;DHT22;7272;53.668;9.578;2023-03-23T16:33:52;14.00;99.90
14378;DHT22;7272;53.668;9.578;2023-03-23T16:36:54;13.80;99.90
14378;DHT22;7272;53.668;9.578;2023-03-23T16:39:56;13.70;99.90
14378;DHT22;7272;53.668;9.578;2023-03-23T16:43:00;13.60;99.90
14378;DHT22;7272;53.668;9.578;2023-03-23T16:46:02;13.50;99.90
14378;DHT22;7272;53.668;9.578;2023-03-23T16:49:04;13.60;99.90
14378;DHT22;7272;53.668;9.578;2023-03-23T16:52:05;13.70;99.90
14378;DHT22;7272;53.668;9.578;2023-03-23T16:55:09;13.60;99.90
14378;DHT22;7272;53.668;9.578;2023-03-23T16:58:14;13.60;99.90
14378;DHT22;7272;53.668;9.578;2023-03-23T17:01:16;13.40;99.90
14378;DHT22;7272;53.668;9.578;2023-03-23T17:04:17;13.40;99.90
14378;DHT22;7272;53.668;9.578;2023-03-23T17:07:19;13.30;99.90
14378;DHT22;7272;53.668;9.578;2023-03-23T17:10:22;13.10;99.90
14378;DHT22;7272;53.668;9.578;2023-03-23T17:13:26;13.10;99.90
14378;DHT22;7272;53.668;9.578;2023-03-23T17:16:27;13.00;99.90
14378;DHT22;7272;53.668;9.578;2023-03-23T17:19:29;13.00;99.90
14378;DHT22;7272;53.668;9.578;2023-03-23T17:22:31;12.90;99.90
14378;DHT22;7272;53.668;9.578;2023-03-23T17:25:33;12.90;99.90
14378;DHT22;7272;53.668;9.578;2023-03-23T17:28:37;12.90;99.90
14378;DHT22;7272;53.668;9.578;2023-03-23T17:31:38;12.80;99.90
14378;DHT22;7272;53.668;9.578;2023-03-23T17:34:41;12.80;99.90
14378;DHT22;7272;53.668;9.578;2023-03-23T17:37:43;12.80;99.90
14378;DHT22;7272;53.668;9.578;2023-03-23T17:40:45;12.70;99.90
14378;DHT22;7272;53.668;9.578;2023-03-23T17:43:48;12.70;99.90
14378;DHT22;7272;53.668;9.578;2023-03-23T17:46:50;12.60;99.90
14378;DHT22;7272;53.668;9.578;2023-03-23T17:49:52;12.60;99.90
14378;DHT22;7272;53.668;9.578;2023-03-23T17:52:54;12.50;99.90
14378;DHT22;7272;53.668;9.578;2023-03-23T17:55:57;12.40;99.90
14378;DHT22;7272;53.668;9.578;2023-03-23T17:59:01;12.40;99.90
14378;DHT22;7272;53.668;9.578;2023-03-23T18:02:02;12.30;99.90
14378;DHT22;7272;53.668;9.578;2023-03-23T18:05:05;12.20;99.90
14378;DHT22;7272;53.668;9.578;2023-03-23T18:08:08;12.10;99.90
14378;DHT22;7272;53.668;9.578;2023-03-23T18:11:10;12.00;99.90
14378;DHT22;7272;53.668;9.578;2023-03-23T18:14:14;11.90;99.90
14378;DHT22;7272;53.668;9.578;2023-03-23T18:17:16;11.80;99.90
14378;DHT22;7272;53.668;9.578;2023-03-23T18:20:18;11.70;99.90
14378;DHT22;7272;53.668;9.578;2023-03-23T18:23:21;11.60;99.90
14378;DHT22;7272;53.668;9.578;2023-03-23T18:26:23;11.50;99.90
14378;DHT22;7272;53.668;9.578;2023-03-23T18:29:26;11.40;99.90
14378;DHT22;7272;53.668;9.578;2023-03-23T18:32:28;11.50;99.90
14378;DHT22;7272;53.668;9.578;2023-03-23T18:35:30;11.50;99.90
14378;DHT22;7272;53.668;9.578;2023-03-23T18:38:32;11.40;99.90
14378;DHT22;7272;53.668;9.578;2023-03-23T18:41:34;11.30;99.90
14378;DHT22;7272;53.668;9.578;2023-03-23T18:44:37;11.30;99.90
14378;DHT22;7272;53.668;9.578;2023-03-23T18:47:39;11.20;99.90
14378;DHT22;7272;53.668;9.578;2023-03-23T18:50:45;11.10;99.90
14378;DHT22;7272;53.668;9.578;2023-03-23T18:53:47;11.10;99.90
14378;DHT22;7272;53.668;9.578;2023-03-23T18:56:49;11.10;99.90
14378;DHT22;7272;53.668;9.578;2023-03-23T18:59:52;11.10;99.90
14378;DHT22;7272;53.668;9.578;2023-03-23T19:02:54;11.10;99.90
14378;DHT22;7272;53.668;9.578;2023-03-23T19:05:57;11.10;99.90
14378;DHT22;7272;53.668;9.578;2023-03-23T19:08:59;11.20;99.90
14378;DHT22;7272;53.668;9.578;2023-03-23T19:12:01;11.20;99.90
14378;DHT22;7272;53.668;9.578;2023-03-23T19:15:06;11.20;99.90
14378;DHT22;7272;53.668;9.578;2023-03-23T19:18:08;11.10;99.90
14378;DHT22;7272;53.668;9.578;2023-03-23T19:21:10;11.10;99.90
14378;DHT22;7272;53.668;9.578;2023-03-23T19:24:12;11.10;99.90
14378;DHT22;7272;53.668;9.578;2023-03-23T19:27:14;11.10;99.90
14378;DHT22;7272;53.668;9.578;2023-03-23T19:30:17;11.10;99.90
14378;DHT22;7272;53.668;9.578;2023-03-23T19:33:20;11.10;99.90
14378;DHT22;7272;53.668;9.578;2023-03-23T19:36:23;11.10;99.90
14378;DHT22;7272;53.668;9.578;2023-03-23T19:39:25;11.20;99.90
14378;DHT22;7272;53.668;9.578;2023-03-23T19:42:27;11.20;99.90
14378;DHT22;7272;53.668;9.578;2023-03-23T19:45:30;11.20;99.90
14378;DHT22;7272;53.668;9.578;2023-03-23T19:48:32;11.30;99.90
14378;DHT22;7272;53.668;9.578;2023-03-23T19:51:34;11.30;99.90
14378;DHT22;7272;53.668;9.578;2023-03-23T19:54:36;11.30;99.90
14378;DHT22;7272;53.668;9.578;2023-03-23T19:57:38;11.20;99.90
14378;DHT22;7272;53.668;9.578;2023-03-23T20:00:43;11.20;99.90
14378;DHT22;7272;53.668;9.578;2023-03-23T20:03:45;11.30;99.90
14378;DHT22;7272;53.668;9.578;2023-03-23T20:06:47;11.20;99.90